createdAt,value
2018-11-10T00:01:42.922Z,3.80
2018-11-10T00:04:11.243Z,3.70
2018-11-10T00:06:39.570Z,3.60
2018-11-10T00:09:08.375Z,3.60
2018-11-10T00:11:36.716Z,3.70
2018-11-10T00:14:05.138Z,3.60
2018-11-10T00:16:33.503Z,3.70
2018-11-10T00:19:01.774Z,3.80
2018-11-10T00:21:30.106Z,3.80
2018-11-10T00:23:58.630Z,3.90
2018-11-10T00:26:26.935Z,3.90
2018-11-10T00:28:55.206Z,3.80
2018-11-10T00:31:23.525Z,3.70
2018-11-10T00:33:51.806Z,3.60
2018-11-10T00:36:20.082Z,3.50
2018-11-10T00:38:48.353Z,3.50
2018-11-10T00:41:16.650Z,3.40
2018-11-10T00:43:44.966Z,3.40
2018-11-10T00:46:13.291Z,3.40
2018-11-10T00:48:41.596Z,3.40
2018-11-10T00:51:10.035Z,3.30
2018-11-10T00:53:38.326Z,3.20
2018-11-10T00:56:06.620Z,3.20
2018-11-10T00:58:34.894Z,3.10
2018-11-10T01:01:03.182Z,3.00
2018-11-10T01:03:31.467Z,2.70
2018-11-10T01:05:59.766Z,2.70
2018-11-10T01:08:28.066Z,2.70
2018-11-10T01:10:56.350Z,2.80
2018-11-10T01:13:24.615Z,2.80
2018-11-10T01:15:52.918Z,2.80
2018-11-10T01:18:21.199Z,2.80
2018-11-10T01:20:49.526Z,2.80
2018-11-10T01:23:17.815Z,2.80
2018-11-10T01:25:46.118Z,2.80
2018-11-10T01:28:14.415Z,2.80
2018-11-10T01:30:42.718Z,2.70
2018-11-10T01:33:11.002Z,2.80
2018-11-10T01:35:39.290Z,2.80
2018-11-10T01:38:07.626Z,2.70
2018-11-10T01:40:35.907Z,2.70
2018-11-10T01:43:04.270Z,2.60
2018-11-10T01:45:32.526Z,2.60
2018-11-10T01:48:00.826Z,2.50
2018-11-10T01:50:29.090Z,2.50
2018-11-10T01:52:57.402Z,2.60
2018-11-10T01:55:25.698Z,2.50
2018-11-10T01:57:53.986Z,2.50
2018-11-10T02:00:22.286Z,2.40
2018-11-10T02:02:50.578Z,2.50
2018-11-10T02:05:18.851Z,2.60
2018-11-10T02:07:47.253Z,2.70
2018-11-10T02:10:15.538Z,2.70
2018-11-10T02:12:43.848Z,2.60
2018-11-10T02:15:14.330Z,2.50
2018-11-10T02:17:42.602Z,2.40
2018-11-10T02:20:12.318Z,2.30
2018-11-10T02:22:40.854Z,2.30
2018-11-10T02:25:10.321Z,2.30
2018-11-10T02:27:38.743Z,2.30
2018-11-10T02:30:08.444Z,2.30
2018-11-10T02:32:36.743Z,2.40
2018-11-10T02:35:06.055Z,2.30
2018-11-10T02:37:34.368Z,2.30
2018-11-10T02:40:02.647Z,2.30
2018-11-10T02:42:30.938Z,2.20
2018-11-10T02:44:59.219Z,2.30
2018-11-10T02:47:27.509Z,2.10
2018-11-10T02:49:55.803Z,2.10
2018-11-10T02:52:24.127Z,2.10
2018-11-10T02:54:52.400Z,2.10
2018-11-10T02:57:20.694Z,2.20
2018-11-10T02:59:48.974Z,2.20
2018-11-10T03:02:17.271Z,2.10
2018-11-10T03:04:45.538Z,2.10
2018-11-10T03:07:13.855Z,2.00
2018-11-10T03:09:42.134Z,1.80
2018-11-10T03:12:10.418Z,1.80
2018-11-10T03:14:38.694Z,1.80
2018-11-10T03:17:06.976Z,1.80
2018-11-10T03:19:35.258Z,1.90
2018-11-10T03:22:03.586Z,1.90
2018-11-10T03:24:31.894Z,1.90
2018-11-10T03:27:00.183Z,1.90
2018-11-10T03:29:28.492Z,2.10
2018-11-10T03:31:56.782Z,2.00
2018-11-10T03:34:25.080Z,2.00
2018-11-10T03:36:53.389Z,2.00
2018-11-10T03:39:21.663Z,1.90
2018-11-10T03:41:49.976Z,1.90
2018-11-10T03:44:19.847Z,1.90
2018-11-10T03:46:49.381Z,2.00
2018-11-10T03:49:17.711Z,1.90
2018-11-10T03:51:45.994Z,1.80
2018-11-10T03:54:14.289Z,1.80
2018-11-10T03:56:42.570Z,1.70
2018-11-10T03:59:10.886Z,1.70
2018-11-10T04:01:39.186Z,1.60
2018-11-10T04:04:07.503Z,1.60
2018-11-10T04:06:35.797Z,1.60
2018-11-10T04:09:04.387Z,1.70
2018-11-10T04:11:32.679Z,1.70
2018-11-10T04:14:01.010Z,1.70
2018-11-10T04:16:29.286Z,1.70
2018-11-10T04:18:57.577Z,1.60
2018-11-10T04:21:25.894Z,1.70
2018-11-10T04:23:54.201Z,1.60
2018-11-10T04:26:22.490Z,1.60
2018-11-10T04:28:50.782Z,1.60
2018-11-10T04:31:19.090Z,1.60
2018-11-10T04:33:47.391Z,1.60
2018-11-10T04:36:15.675Z,1.60
2018-11-10T04:38:44.206Z,1.60
2018-11-10T04:41:12.506Z,1.70
2018-11-10T04:43:40.816Z,1.70
2018-11-10T04:46:09.115Z,1.70
2018-11-10T04:48:37.690Z,1.70
2018-11-10T04:51:06.214Z,1.70
2018-11-10T04:53:34.516Z,1.70
2018-11-10T04:56:02.790Z,1.60
2018-11-10T04:58:31.101Z,1.60
2018-11-10T05:00:59.390Z,1.60
2018-11-10T05:03:27.722Z,1.60
2018-11-10T05:05:56.003Z,1.60
2018-11-10T05:08:24.311Z,1.60
2018-11-10T05:10:52.582Z,1.60
2018-11-10T05:13:20.891Z,1.50
2018-11-10T05:15:49.162Z,1.60
2018-11-10T05:18:17.458Z,1.60
2018-11-10T05:20:45.723Z,1.70
2018-11-10T05:23:14.030Z,1.70
2018-11-10T05:25:42.294Z,1.70
2018-11-10T05:28:10.607Z,1.70
2018-11-10T05:30:38.894Z,1.60
2018-11-10T05:33:07.766Z,1.50
2018-11-10T05:35:36.443Z,1.50
2018-11-10T05:38:05.099Z,1.50
2018-11-10T05:40:33.551Z,1.50
2018-11-10T05:43:01.842Z,1.40
2018-11-10T05:45:30.147Z,1.50
2018-11-10T05:47:58.451Z,1.40
2018-11-10T05:50:27.498Z,1.50
2018-11-10T05:52:55.913Z,1.50
2018-11-10T05:55:24.189Z,1.40
2018-11-10T05:57:52.478Z,1.20
2018-11-10T06:00:20.755Z,1.20
2018-11-10T06:02:49.052Z,1.20
2018-11-10T06:05:17.427Z,1.30
2018-11-10T06:07:45.701Z,1.30
2018-11-10T06:10:14.175Z,1.30
2018-11-10T06:12:42.974Z,1.30
2018-11-10T06:15:11.382Z,1.30
2018-11-10T06:17:39.858Z,1.40
2018-11-10T06:20:10.214Z,1.40
2018-11-10T06:22:38.692Z,1.40
2018-11-10T06:25:07.862Z,1.40
2018-11-10T06:27:36.190Z,1.40
2018-11-10T06:30:05.655Z,1.30
2018-11-10T06:32:33.991Z,1.30
2018-11-10T06:35:02.256Z,1.30
2018-11-10T06:37:30.645Z,1.30
2018-11-10T06:39:59.254Z,1.40
2018-11-10T06:42:27.614Z,1.50
2018-11-10T06:44:55.943Z,1.60
2018-11-10T06:47:24.229Z,1.60
2018-11-10T06:49:52.532Z,1.60
2018-11-10T06:52:20.810Z,1.70
2018-11-10T06:54:49.106Z,1.70
2018-11-10T06:57:17.403Z,1.70
2018-11-10T06:59:45.711Z,1.70
2018-11-10T07:02:13.995Z,1.80
2018-11-10T07:04:42.303Z,1.80
2018-11-10T07:07:10.586Z,1.90
2018-11-10T07:09:38.892Z,2.00
2018-11-10T07:12:07.203Z,2.10
2018-11-10T07:14:35.510Z,2.10
2018-11-10T07:17:03.807Z,2.20
2018-11-10T07:19:32.111Z,2.40
2018-11-10T07:22:00.457Z,2.50
2018-11-10T07:24:28.739Z,2.60
2018-11-10T07:26:57.018Z,2.80
2018-11-10T07:29:25.511Z,2.80
2018-11-10T07:31:53.793Z,2.90
2018-11-10T07:34:22.109Z,3.00
2018-11-10T07:36:50.399Z,3.20
2018-11-10T07:39:18.716Z,3.30
2018-11-10T07:41:47.022Z,3.40
2018-11-10T07:44:15.381Z,3.50
2018-11-10T07:46:43.698Z,3.50
2018-11-10T07:49:11.990Z,3.60
2018-11-10T07:51:40.283Z,3.80
2018-11-10T07:54:08.575Z,3.90
2018-11-10T07:56:36.851Z,4.10
2018-11-10T07:59:05.653Z,4.30
2018-11-10T08:01:33.942Z,4.60
2018-11-10T08:04:02.321Z,4.80
2018-11-10T08:06:30.592Z,5.00
2018-11-10T08:08:58.872Z,5.20
2018-11-10T08:11:27.162Z,5.30
2018-11-10T08:13:55.496Z,5.50
2018-11-10T08:16:23.762Z,5.60
2018-11-10T08:18:52.132Z,5.70
2018-11-10T08:21:20.523Z,5.90
2018-11-10T08:23:48.786Z,6.20
2018-11-10T08:26:17.083Z,6.50
2018-11-10T08:28:45.378Z,6.90
2018-11-10T08:31:13.696Z,7.20
2018-11-10T08:33:41.985Z,7.50
2018-11-10T08:36:10.262Z,7.70
2018-11-10T08:38:38.562Z,8.00
2018-11-10T08:41:06.963Z,8.20
2018-11-10T08:43:35.257Z,8.40
2018-11-10T08:46:03.576Z,8.60
2018-11-10T08:48:31.864Z,8.80
2018-11-10T08:51:00.151Z,9.00
2018-11-10T08:53:28.418Z,9.10
2018-11-10T08:55:56.718Z,9.20
2018-11-10T08:58:25.022Z,9.30
2018-11-10T09:00:53.318Z,9.50
2018-11-10T09:03:21.645Z,9.60
2018-11-10T09:05:49.946Z,9.70
2018-11-10T09:08:18.222Z,9.70
2018-11-10T09:10:46.530Z,9.80
2018-11-10T09:13:14.904Z,9.90
2018-11-10T09:15:43.215Z,10.00
2018-11-10T09:18:11.495Z,10.10
2018-11-10T09:20:39.778Z,10.20
2018-11-10T09:23:08.070Z,10.30
2018-11-10T09:25:36.383Z,10.40
2018-11-10T09:28:04.770Z,10.50
2018-11-10T09:30:33.093Z,10.50
2018-11-10T09:33:01.378Z,10.60
2018-11-10T09:35:29.669Z,10.70
2018-11-10T09:37:58.002Z,10.80
2018-11-10T09:40:26.330Z,10.80
2018-11-10T09:42:54.607Z,10.90
2018-11-10T09:45:22.934Z,11.00
2018-11-10T09:47:51.230Z,11.10
2018-11-10T09:50:20.953Z,11.10
2018-11-10T09:52:49.379Z,11.10
2018-11-10T09:55:18.054Z,11.10
2018-11-10T09:57:46.513Z,11.00
2018-11-10T10:00:19.031Z,11.10
2018-11-10T10:02:47.769Z,11.20
2018-11-10T10:05:15.618Z,11.30
2018-11-10T10:07:44.366Z,11.30
2018-11-10T10:10:14.438Z,11.30
2018-11-10T10:12:43.220Z,11.40
2018-11-10T10:15:12.847Z,11.40
2018-11-10T10:17:42.151Z,11.40
2018-11-10T10:20:13.874Z,11.40
2018-11-10T10:22:42.402Z,11.40
2018-11-10T10:25:12.280Z,11.60
2018-11-10T10:27:40.632Z,11.50
2018-11-10T10:30:14.398Z,11.60
2018-11-10T10:32:43.447Z,11.70
2018-11-10T10:35:12.170Z,11.80
2018-11-10T10:37:40.332Z,11.80
2018-11-10T10:40:10.278Z,12.00
2018-11-10T10:42:38.597Z,12.10
2018-11-10T10:45:08.483Z,12.00
2018-11-10T10:47:36.778Z,11.90
2018-11-10T10:50:05.283Z,11.80
2018-11-10T10:52:33.619Z,11.90
2018-11-10T10:55:01.903Z,11.90
2018-11-10T10:57:30.315Z,12.00
2018-11-10T10:59:58.595Z,12.00
2018-11-10T11:02:32.355Z,12.00
2018-11-10T11:05:04.829Z,12.00
2018-11-10T11:07:33.203Z,12.00
2018-11-10T11:10:01.514Z,12.10
2018-11-10T11:12:29.825Z,12.30
2018-11-10T11:14:58.181Z,12.20
2018-11-10T11:17:26.478Z,12.10
2018-11-10T11:19:54.785Z,12.10
2018-11-10T11:22:23.118Z,12.10
2018-11-10T11:24:51.403Z,12.10
2018-11-10T11:27:19.687Z,12.10
2018-11-10T11:29:48.029Z,12.10
2018-11-10T11:32:16.293Z,12.00
2018-11-10T11:34:44.578Z,12.00
2018-11-10T11:37:12.901Z,12.00
2018-11-10T11:39:41.192Z,12.00
2018-11-10T11:42:09.495Z,12.00
2018-11-10T11:44:37.791Z,12.00
2018-11-10T11:47:06.120Z,12.00
2018-11-10T11:49:34.549Z,12.00
2018-11-10T11:52:02.839Z,11.90
2018-11-10T11:54:31.110Z,11.90
2018-11-10T11:56:59.406Z,11.90
2018-11-10T11:59:27.676Z,12.00
2018-11-10T12:01:55.974Z,12.00
2018-11-10T12:04:24.316Z,11.90
2018-11-10T12:06:52.654Z,11.80
2018-11-10T12:09:20.955Z,11.80
2018-11-10T12:11:49.258Z,11.80
2018-11-10T12:14:17.599Z,11.80
2018-11-10T12:16:45.909Z,11.80
2018-11-10T12:19:14.181Z,11.80
2018-11-10T12:21:42.467Z,11.90
2018-11-10T12:24:10.751Z,11.80
2018-11-10T12:26:39.106Z,12.10
2018-11-10T12:29:07.436Z,12.30
2018-11-10T12:31:35.735Z,12.40
2018-11-10T12:34:04.042Z,12.30
2018-11-10T12:36:32.347Z,12.20
2018-11-10T12:39:00.734Z,12.10
2018-11-10T12:41:28.973Z,12.00
2018-11-10T12:43:57.290Z,12.00
2018-11-10T12:46:25.660Z,12.00
2018-11-10T12:48:53.963Z,12.10
2018-11-10T12:51:22.345Z,12.50
2018-11-10T12:53:50.630Z,12.50
2018-11-10T12:56:18.923Z,12.60
2018-11-10T12:58:47.480Z,12.70
2018-11-10T13:01:15.778Z,12.70
2018-11-10T13:03:44.075Z,12.60
2018-11-10T13:06:12.370Z,12.50
2018-11-10T13:08:40.638Z,12.30
2018-11-10T13:11:08.929Z,12.30
2018-11-10T13:13:37.258Z,12.70
2018-11-10T13:16:05.531Z,12.80
2018-11-10T13:18:33.829Z,13.10
2018-11-10T13:21:02.128Z,13.30
2018-11-10T13:23:30.438Z,13.30
2018-11-10T13:25:58.723Z,13.50
2018-11-10T13:28:27.046Z,13.50
2018-11-10T13:30:55.396Z,13.50
2018-11-10T13:33:23.656Z,13.50
2018-11-10T13:35:52.111Z,13.30
2018-11-10T13:38:20.459Z,13.40
2018-11-10T13:40:48.736Z,13.30
2018-11-10T13:43:17.051Z,13.30
2018-11-10T13:45:45.354Z,13.30
2018-11-10T13:48:13.656Z,13.20
2018-11-10T13:50:42.078Z,13.00
2018-11-10T13:53:10.279Z,13.00
2018-11-10T13:55:38.574Z,13.00
2018-11-10T13:58:06.859Z,12.90
2018-11-10T14:00:35.156Z,12.70
2018-11-10T14:03:03.454Z,12.60
2018-11-10T14:05:31.795Z,12.60
2018-11-10T14:08:00.091Z,12.70
2018-11-10T14:10:28.440Z,12.60
2018-11-10T14:12:56.699Z,12.60
2018-11-10T14:15:24.961Z,12.60
2018-11-10T14:17:53.254Z,12.60
2018-11-10T14:20:21.566Z,12.50
2018-11-10T14:22:49.864Z,12.40
2018-11-10T14:25:18.394Z,12.30
2018-11-10T14:27:46.827Z,12.20
2018-11-10T14:30:16.405Z,12.20
2018-11-10T14:32:45.018Z,12.20
2018-11-10T14:35:13.711Z,12.20
2018-11-10T14:37:42.110Z,12.20
2018-11-10T14:40:15.367Z,12.20
2018-11-10T14:42:44.242Z,12.10
2018-11-10T14:45:13.766Z,12.10
2018-11-10T14:47:42.581Z,11.90
2018-11-10T14:50:11.658Z,11.90
2018-11-10T14:52:40.328Z,11.90
2018-11-10T14:55:09.402Z,11.70
2018-11-10T14:57:37.957Z,11.50
2018-11-10T15:00:10.195Z,11.40
2018-11-10T15:02:38.510Z,11.10
2018-11-10T15:05:07.242Z,10.90
2018-11-10T15:07:35.558Z,10.90
2018-11-10T15:10:04.823Z,11.00
2018-11-10T15:12:33.140Z,10.80
2018-11-10T15:15:01.414Z,10.80
2018-11-10T15:17:29.727Z,10.60
2018-11-10T15:19:58.024Z,10.60
2018-11-10T15:22:26.322Z,10.40
2018-11-10T15:24:54.595Z,10.30
2018-11-10T15:27:22.892Z,10.30
2018-11-10T15:29:51.170Z,10.10
2018-11-10T15:32:19.471Z,10.00
2018-11-10T15:34:47.754Z,10.10
2018-11-10T15:37:16.040Z,9.90
2018-11-10T15:39:44.318Z,9.80
2018-11-10T15:42:12.610Z,9.80
2018-11-10T15:44:41.022Z,9.70
2018-11-10T15:47:09.308Z,9.70
2018-11-10T15:49:38.406Z,9.70
2018-11-10T15:52:06.666Z,9.50
2018-11-10T15:54:34.945Z,9.40
2018-11-10T15:57:03.252Z,9.20
2018-11-10T15:59:31.569Z,9.20
2018-11-10T16:01:59.865Z,9.30
2018-11-10T16:04:28.159Z,9.30
2018-11-10T16:06:56.435Z,9.30
2018-11-10T16:09:24.734Z,9.20
2018-11-10T16:11:52.995Z,9.10
2018-11-10T16:14:21.314Z,8.90
2018-11-10T16:16:49.602Z,8.80
2018-11-10T16:19:17.993Z,8.80
2018-11-10T16:21:46.266Z,8.70
2018-11-10T16:24:14.656Z,8.70
2018-11-10T16:26:42.986Z,8.60
2018-11-10T16:29:11.294Z,8.40
2018-11-10T16:31:39.566Z,8.30
2018-11-10T16:34:07.887Z,8.10
2018-11-10T16:36:36.165Z,8.00
2018-11-10T16:39:05.799Z,7.80
2018-11-10T16:41:34.066Z,7.70
2018-11-10T16:44:02.366Z,7.60
2018-11-10T16:46:30.658Z,7.70
2018-11-10T16:48:58.962Z,7.60
2018-11-10T16:51:27.253Z,7.40
2018-11-10T16:53:55.555Z,7.20
2018-11-10T16:56:23.873Z,7.20
2018-11-10T16:58:52.172Z,7.10
2018-11-10T17:01:20.477Z,7.10
2018-11-10T17:03:48.790Z,7.00
2018-11-10T17:06:17.078Z,7.10
2018-11-10T17:08:45.395Z,7.00
2018-11-10T17:11:13.816Z,6.90
2018-11-10T17:13:42.220Z,6.80
2018-11-10T17:16:10.530Z,6.70
2018-11-10T17:18:38.987Z,6.60
2018-11-10T17:21:07.298Z,6.50
2018-11-10T17:23:35.574Z,6.40
2018-11-10T17:26:03.954Z,6.30
2018-11-10T17:28:32.274Z,6.30
2018-11-10T17:31:00.538Z,6.40
2018-11-10T17:33:28.840Z,6.30
2018-11-10T17:35:57.108Z,6.30
2018-11-10T17:38:25.427Z,6.30
2018-11-10T17:40:53.901Z,6.10
2018-11-10T17:43:22.203Z,6.00
2018-11-10T17:45:50.558Z,6.00
2018-11-10T17:48:18.918Z,6.00
2018-11-10T17:50:47.182Z,6.00
2018-11-10T17:53:15.447Z,6.00
2018-11-10T17:55:43.935Z,6.00
2018-11-10T17:58:12.203Z,6.00
2018-11-10T18:00:40.485Z,6.00
2018-11-10T18:03:08.793Z,5.90
2018-11-10T18:05:37.211Z,5.80
2018-11-10T18:08:06.549Z,5.70
2018-11-10T18:10:34.876Z,5.60
2018-11-10T18:13:03.230Z,5.60
2018-11-10T18:15:31.446Z,5.50
2018-11-10T18:17:59.750Z,5.40
2018-11-10T18:20:28.042Z,5.30
2018-11-10T18:22:56.308Z,5.30
2018-11-10T18:25:24.646Z,5.30
2018-11-10T18:27:52.946Z,5.30
2018-11-10T18:30:21.236Z,5.20
2018-11-10T18:32:49.526Z,5.20
2018-11-10T18:35:17.874Z,5.10
2018-11-10T18:37:46.181Z,5.10
2018-11-10T18:40:14.840Z,5.00
2018-11-10T18:45:17.966Z,5.00
2018-11-10T18:47:46.258Z,5.10
2018-11-10T18:50:15.706Z,5.10
2018-11-10T18:52:44.048Z,5.00
2018-11-10T18:55:13.072Z,5.00
2018-11-10T18:57:41.548Z,5.00
2018-11-10T19:00:11.902Z,4.90
2018-11-10T19:02:40.489Z,4.90
2018-11-10T19:05:10.166Z,4.90
2018-11-10T19:07:38.732Z,4.80
2018-11-10T19:10:08.658Z,4.80
2018-11-10T19:12:37.997Z,4.70
2018-11-10T19:15:09.890Z,4.70
2018-11-10T19:17:38.388Z,4.70
2018-11-10T19:20:07.318Z,4.70
2018-11-10T19:22:35.628Z,4.80
2018-11-10T19:25:04.130Z,4.70
2018-11-10T19:27:32.416Z,4.80
2018-11-10T19:30:00.871Z,4.70
2018-11-10T19:32:29.224Z,4.70
2018-11-10T19:34:57.502Z,4.70
2018-11-10T19:37:25.795Z,4.70
2018-11-10T19:39:54.091Z,4.70
2018-11-10T19:42:22.359Z,5.00
2018-11-10T19:44:50.676Z,5.20
2018-11-10T19:47:19.983Z,5.00
2018-11-10T19:49:48.646Z,4.90
2018-11-10T19:52:17.342Z,4.80
2018-11-10T19:54:45.656Z,4.80
2018-11-10T19:57:13.963Z,4.60
2018-11-10T19:59:42.242Z,4.60
2018-11-10T20:02:10.522Z,4.60
2018-11-10T20:04:38.898Z,4.60
2018-11-10T20:07:07.165Z,4.50
2018-11-10T20:09:36.063Z,4.50
2018-11-10T20:12:04.394Z,4.50
2018-11-10T20:14:32.704Z,4.40
2018-11-10T20:17:00.983Z,4.40
2018-11-10T20:19:29.420Z,4.30
2018-11-10T20:21:57.824Z,4.30
2018-11-10T20:24:26.170Z,4.20
2018-11-10T20:26:54.515Z,4.20
2018-11-10T20:29:22.816Z,4.10
2018-11-10T20:31:51.115Z,4.20
2018-11-10T20:34:19.439Z,4.20
2018-11-10T20:36:47.736Z,4.20
2018-11-10T20:39:16.138Z,4.30
2018-11-10T20:41:44.418Z,4.30
2018-11-10T20:44:12.689Z,4.30
2018-11-10T20:46:41.014Z,4.20
2018-11-10T20:49:09.322Z,4.20
2018-11-10T20:51:37.602Z,4.10
2018-11-10T20:54:06.057Z,4.10
2018-11-10T20:56:34.374Z,4.10
2018-11-10T20:59:02.698Z,4.10
2018-11-10T21:01:31.013Z,4.10
2018-11-10T21:03:59.286Z,4.10
2018-11-10T21:06:27.578Z,4.10
2018-11-10T21:08:55.898Z,4.10
2018-11-10T21:11:24.217Z,4.00
2018-11-10T21:13:52.493Z,4.00
2018-11-10T21:16:20.818Z,4.10
2018-11-10T21:18:49.130Z,4.20
2018-11-10T21:21:17.406Z,4.10
2018-11-10T21:23:45.711Z,4.00
2018-11-10T21:26:14.042Z,3.90
2018-11-10T21:28:42.444Z,3.90
2018-11-10T21:31:10.827Z,3.80
2018-11-10T21:33:39.203Z,3.80
2018-11-10T21:36:07.439Z,3.80
2018-11-10T21:38:35.723Z,3.80
2018-11-10T21:41:04.183Z,4.00
2018-11-10T21:43:32.472Z,4.00
2018-11-10T21:46:00.816Z,4.00
2018-11-10T21:48:29.106Z,3.90
2018-11-10T21:50:57.443Z,3.80
2018-11-10T21:53:25.718Z,3.90
2018-11-10T21:55:54.034Z,3.80
2018-11-10T21:58:22.319Z,3.80
2018-11-10T22:00:50.606Z,3.60
2018-11-10T22:03:18.919Z,3.50
2018-11-10T22:05:47.235Z,3.60
2018-11-10T22:08:15.513Z,3.60
2018-11-10T22:10:43.806Z,3.50
2018-11-10T22:13:12.084Z,3.50
2018-11-10T22:15:40.394Z,3.40
2018-11-10T22:18:08.682Z,3.40
2018-11-10T22:20:36.966Z,3.30
2018-11-10T22:23:05.289Z,3.30
2018-11-10T22:25:33.554Z,3.40
2018-11-10T22:28:01.840Z,3.50
2018-11-10T22:30:30.116Z,3.60
2018-11-10T22:32:58.424Z,3.50
2018-11-10T22:35:26.711Z,3.30
2018-11-10T22:37:55.012Z,3.20
2018-11-10T22:40:23.309Z,3.10
2018-11-10T22:42:51.612Z,3.10
2018-11-10T22:45:20.970Z,3.00
2018-11-10T22:47:49.307Z,3.00
2018-11-10T22:50:19.071Z,2.90
2018-11-10T22:52:47.360Z,2.90
2018-11-10T22:55:15.651Z,2.90
2018-11-10T22:57:43.941Z,2.90
2018-11-10T23:00:24.895Z,2.90
2018-11-10T23:02:56.314Z,2.90
2018-11-10T23:05:25.094Z,2.80
2018-11-10T23:07:53.381Z,2.90
2018-11-10T23:10:21.982Z,2.90
2018-11-10T23:12:51.201Z,2.70
2018-11-10T23:15:19.469Z,2.70
2018-11-10T23:17:47.776Z,2.80
2018-11-10T23:20:17.299Z,2.80
2018-11-10T23:22:45.668Z,2.90
2018-11-10T23:25:15.207Z,2.80
2018-11-10T23:27:43.543Z,2.70
2018-11-10T23:30:14.451Z,2.80
2018-11-10T23:32:42.769Z,2.70
2018-11-10T23:35:11.628Z,2.70
2018-11-10T23:37:40.442Z,2.60
2018-11-10T23:40:10.652Z,2.60
2018-11-10T23:42:39.082Z,2.60
2018-11-10T23:45:07.726Z,2.60
2018-11-10T23:47:36.378Z,2.60
2018-11-10T23:50:05.119Z,2.60
2018-11-10T23:52:33.427Z,2.50
2018-11-10T23:55:01.700Z,2.50
2018-11-10T23:57:30.014Z,2.50
2018-11-10T23:59:58.322Z,2.40
